Time;durP1;ratioP1;P1;durP2;ratioP2;P2;SDS_P1;SDS_P2;PMS_P1;PMS_P2;Temp;Humidity;BMP_temperature;BMP_pressure;BME280_temperature;BME280_humidity;BME280_pressure;Samples;Min_cycle;Max_cycle;Signal;HPM_P1;HPM_P2
2023/03/10 00:00:32;;;;;;;13.60;9.60;;;1.20;99.90;;;;;;5052238;28;20124;-71
2023/03/10 00:02:58;;;;;;;13.40;9.50;;;1.20;99.90;;;;;;5051543;28;20056;-68
2023/03/10 00:05:24;;;;;;;13.88;9.75;;;1.20;99.90;;;;;;5051809;28;20107;-71
2023/03/10 00:07:49;;;;;;;13.40;9.50;;;1.20;99.90;;;;;;5052043;28;20036;-72
2023/03/10 00:10:17;;;;;;;12.73;9.30;;;1.20;99.90;;;;;;5051571;28;20060;-72
2023/03/10 00:12:43;;;;;;;13.35;10.07;;;1.20;99.90;;;;;;5052054;28;20384;-71
2023/03/10 00:15:10;;;;;;;13.65;9.05;;;1.20;99.90;;;;;;5050959;28;20037;-70
2023/03/10 00:17:36;;;;;;;14.65;9.90;;;1.30;99.90;;;;;;5051470;28;20041;-69
2023/03/10 00:20:10;;;;;;;13.00;9.65;;;1.20;99.90;;;;;;5052893;28;20739;-70
2023/03/10 00:22:35;;;;;;;13.88;10.20;;;1.20;99.90;;;;;;5079826;28;20055;-70
2023/03/10 00:25:01;;;;;;;13.90;9.80;;;1.20;99.90;;;;;;5047483;28;20123;-68
2023/03/10 00:27:27;;;;;;;14.43;9.63;;;1.20;99.90;;;;;;5051304;28;20059;-70
2023/03/10 00:29:52;;;;;;;14.65;10.05;;;1.20;99.90;;;;;;5054903;28;20102;-68
2023/03/10 00:32:18;;;;;;;14.05;9.90;;;1.20;99.90;;;;;;5049955;28;20072;-71
2023/03/10 00:34:44;;;;;;;13.07;9.77;;;1.20;99.90;;;;;;5036806;28;20143;-71
2023/03/10 00:37:10;;;;;;;13.15;9.07;;;1.20;99.90;;;;;;5050330;28;20385;-68
2023/03/10 00:39:35;;;;;;;14.00;9.63;;;1.20;99.90;;;;;;5034233;28;20080;-69
2023/03/10 00:42:01;;;;;;;12.25;9.15;;;1.20;99.90;;;;;;5054069;28;20036;-69
2023/03/10 00:44:27;;;;;;;12.35;8.82;;;1.20;99.90;;;;;;5050532;28;20128;-69
2023/03/10 00:46:53;;;;;;;11.68;8.68;;;1.20;99.90;;;;;;5055258;28;20037;-67
2023/03/10 00:49:19;;;;;;;13.10;9.02;;;1.20;99.90;;;;;;5051014;28;20032;-69
2023/03/10 00:51:45;;;;;;;13.05;8.48;;;1.20;99.90;;;;;;5049527;28;20055;-69
2023/03/10 00:54:11;;;;;;;13.20;9.13;;;1.20;99.90;;;;;;5049826;28;20487;-70
2023/03/10 00:56:37;;;;;;;10.98;8.18;;;1.20;99.90;;;;;;5048547;28;20066;-69
2023/03/10 00:59:03;;;;;;;13.10;9.13;;;1.20;99.90;;;;;;5048892;28;20380;-67
2023/03/10 01:01:34;;;;;;;11.10;8.50;;;1.20;99.90;;;;;;5049059;28;20491;-70
2023/03/10 01:04:06;;;;;;;11.65;8.77;;;1.20;99.90;;;;;;5047218;28;20076;-71
2023/03/10 01:06:32;;;;;;;12.20;8.77;;;1.20;99.90;;;;;;5049575;28;20056;-70
2023/03/10 01:08:58;;;;;;;11.63;8.75;;;1.20;99.90;;;;;;5050583;28;20045;-69
2023/03/10 01:11:27;;;;;;;11.07;8.30;;;1.20;99.90;;;;;;5049714;28;20048;-71
2023/03/10 01:13:56;;;;;;;11.35;8.55;;;1.20;99.90;;;;;;5049344;28;20041;-68
2023/03/10 01:16:22;;;;;;;11.43;8.73;;;1.30;99.90;;;;;;5050610;28;20045;-71
2023/03/10 01:18:47;;;;;;;11.95;8.57;;;1.20;99.90;;;;;;5050002;28;20403;-69
2023/03/10 01:21:17;;;;;;;10.93;8.15;;;1.20;99.90;;;;;;5048420;28;20041;-70
2023/03/10 01:23:43;;;;;;;11.20;8.60;;;1.20;99.90;;;;;;5051312;28;20037;-69
2023/03/10 01:26:08;;;;;;;11.07;8.25;;;1.20;99.90;;;;;;5049473;28;20041;-70
2023/03/10 01:28:34;;;;;;;11.07;8.65;;;1.30;99.90;;;;;;5049114;28;20029;-70
2023/03/10 01:31:00;;;;;;;10.98;8.38;;;1.30;99.90;;;;;;5033030;28;20037;-71
2023/03/10 01:33:25;;;;;;;11.15;8.15;;;1.30;99.90;;;;;;5052134;28;20051;-68
2023/03/10 01:35:51;;;;;;;10.70;8.02;;;1.30;99.90;;;;;;5049808;28;20051;-71
2023/03/10 01:38:17;;;;;;;12.07;8.77;;;1.30;99.90;;;;;;5050248;28;20079;-69
2023/03/10 01:40:48;;;;;;;12.23;8.65;;;1.30;99.90;;;;;;5050632;28;20053;-69
2023/03/10 01:43:40;;;;;;;10.65;8.48;;;1.30;99.90;;;;;;5049456;28;20041;-69
2023/03/10 01:46:32;;;;;;;10.75;8.38;;;1.20;99.90;;;;;;5066232;28;20063;-68
2023/03/10 01:49:04;;;;;;;12.37;9.00;;;1.20;99.90;;;;;;5049071;28;20041;-69
2023/03/10 01:51:33;;;;;;;11.25;8.55;;;1.20;99.90;;;;;;5048319;28;20307;-70
2023/03/10 01:54:01;;;;;;;11.00;8.65;;;1.30;99.90;;;;;;5050141;28;20507;-71
2023/03/10 01:56:26;;;;;;;11.75;8.73;;;1.20;99.90;;;;;;5048815;28;20040;-68
2023/03/10 01:58:53;;;;;;;10.98;8.80;;;1.20;99.90;;;;;;5048967;28;20052;-70
2023/03/10 02:01:19;;;;;;;12.13;9.20;;;1.20;99.90;;;;;;5049668;28;20040;-69
2023/03/10 02:03:50;;;;;;;12.82;9.18;;;1.20;99.90;;;;;;5047827;28;20048;-71
2023/03/10 02:06:18;;;;;;;12.00;9.45;;;1.30;99.90;;;;;;5049985;28;20033;-70
2023/03/10 02:08:49;;;;;;;13.18;9.80;;;1.30;99.90;;;;;;5051393;28;20043;-71
2023/03/10 02:11:16;;;;;;;12.63;9.82;;;1.20;99.90;;;;;;5049567;28;20036;-72
2023/03/10 02:13:41;;;;;;;11.57;9.10;;;1.20;99.90;;;;;;5051533;28;20051;-68
2023/03/10 02:16:08;;;;;;;11.25;8.98;;;1.20;99.90;;;;;;5046218;28;20029;-71
2023/03/10 02:18:33;;;;;;;12.40;9.40;;;1.20;99.90;;;;;;5032731;28;20053;-69
2023/03/10 02:21:22;;;;;;;12.45;9.38;;;1.20;99.90;;;;;;5046839;28;20031;-70
2023/03/10 02:24:05;;;;;;;12.35;9.27;;;1.20;99.90;;;;;;5066349;28;20048;-71
2023/03/10 02:26:49;;;;;;;;;;;1.20;99.90;;;;;;5050880;28;20395;-69
2023/03/10 02:29:27;;;;;;;12.02;8.82;;;1.20;99.90;;;;;;5048105;28;20295;-69
2023/03/10 02:31:55;;;;;;;11.00;8.35;;;1.20;99.90;;;;;;5046912;28;20447;-71
2023/03/10 02:34:22;;;;;;;11.90;8.90;;;1.20;99.90;;;;;;5049392;28;20045;-68
2023/03/10 02:36:48;;;;;;;12.18;8.77;;;1.20;99.90;;;;;;5048694;28;20051;-68
2023/03/10 02:39:13;;;;;;;11.57;8.57;;;1.20;99.90;;;;;;5048206;28;20567;-70
2023/03/10 02:41:40;;;;;;;10.32;8.23;;;1.20;99.90;;;;;;5049220;28;20766;-69
2023/03/10 02:44:10;;;;;;;11.05;8.73;;;1.20;99.90;;;;;;5049424;28;20068;-70
2023/03/10 02:46:36;;;;;;;11.10;8.40;;;1.20;99.90;;;;;;5050404;28;20040;-68
2023/03/10 02:49:05;;;;;;;11.95;8.43;;;1.20;99.90;;;;;;5052159;28;20357;-68
2023/03/10 02:51:34;;;;;;;9.50;7.78;;;1.20;99.90;;;;;;5053768;28;20091;-71
2023/03/10 02:54:01;;;;;;;10.00;7.85;;;1.20;99.90;;;;;;5051063;28;20495;-69
2023/03/10 02:56:27;;;;;;;11.02;8.45;;;1.20;99.90;;;;;;5049795;28;20045;-69
2023/03/10 02:58:53;;;;;;;10.02;7.60;;;1.20;99.90;;;;;;5050483;28;20052;-71
2023/03/10 03:01:19;;;;;;;9.45;7.55;;;1.20;99.90;;;;;;5047754;28;20127;-70
2023/03/10 03:03:45;;;;;;;10.05;7.70;;;1.20;99.90;;;;;;5049123;28;20060;-69
2023/03/10 03:06:11;;;;;;;10.15;7.50;;;1.20;99.90;;;;;;5049965;28;20049;-67
2023/03/10 03:08:37;;;;;;;10.98;8.20;;;1.20;99.90;;;;;;5049234;28;20079;-69
2023/03/10 03:11:03;;;;;;;10.70;8.10;;;1.20;99.90;;;;;;5048643;28;20493;-69
2023/03/10 03:13:29;;;;;;;10.30;7.82;;;1.20;99.90;;;;;;5048196;28;20029;-69
2023/03/10 03:15:54;;;;;;;11.20;8.52;;;1.10;99.90;;;;;;5049113;28;20037;-73
2023/03/10 03:18:20;;;;;;;10.20;8.15;;;1.20;99.90;;;;;;5047402;28;20105;-69
2023/03/10 03:20:46;;;;;;;10.10;7.75;;;1.20;99.90;;;;;;5050034;28;20298;-70
2023/03/10 03:23:13;;;;;;;11.20;8.40;;;1.10;99.90;;;;;;5036340;28;20502;-68
2023/03/10 03:25:40;;;;;;;9.98;7.47;;;1.10;99.90;;;;;;5048692;28;20391;-71
2023/03/10 03:28:08;;;;;;;10.43;8.35;;;1.10;99.90;;;;;;5050140;28;20045;-71
2023/03/10 03:30:35;;;;;;;11.32;8.30;;;1.10;99.90;;;;;;5049233;28;20033;-71
2023/03/10 03:33:02;;;;;;;12.13;9.00;;;1.20;99.90;;;;;;5048201;28;20033;-69
2023/03/10 03:35:33;;;;;;;11.20;8.70;;;1.20;99.90;;;;;;5048535;28;20040;-71
2023/03/10 03:37:59;;;;;;;11.65;9.45;;;1.20;99.90;;;;;;5048400;28;20045;-70
2023/03/10 03:40:29;;;;;;;11.98;9.38;;;1.20;99.90;;;;;;5047076;28;20446;-69
2023/03/10 03:42:55;;;;;;;12.70;9.63;;;1.20;99.90;;;;;;5049881;28;20044;-71
2023/03/10 03:45:25;;;;;;;12.90;10.10;;;1.20;99.90;;;;;;5047896;28;20044;-70
2023/03/10 03:47:51;;;;;;;13.15;10.07;;;1.20;99.90;;;;;;5048650;28;20041;-68
2023/03/10 03:50:18;;;;;;;14.05;10.95;;;1.20;99.90;;;;;;5048039;28;20035;-70
2023/03/10 03:52:44;;;;;;;16.92;10.68;;;1.20;99.90;;;;;;5052871;28;20049;-69
2023/03/10 03:55:12;;;;;;;14.43;10.95;;;1.20;99.90;;;;;;5051652;28;20044;-72
2023/03/10 03:57:38;;;;;;;13.57;10.38;;;1.20;99.90;;;;;;5037402;28;20098;-70
2023/03/10 04:00:06;;;;;;;15.20;11.35;;;1.20;99.90;;;;;;5053213;28;20128;-69
2023/03/10 04:02:33;;;;;;;14.23;11.55;;;1.20;99.90;;;;;;5052749;28;20492;-70
2023/03/10 04:04:59;;;;;;;15.30;12.00;;;1.20;99.90;;;;;;5050253;28;20518;-69
2023/03/10 04:07:24;;;;;;;15.73;12.15;;;1.20;99.90;;;;;;5050121;28;20112;-69
2023/03/10 04:09:50;;;;;;;14.98;11.73;;;1.20;99.90;;;;;;5052765;28;20051;-68
2023/03/10 04:12:16;;;;;;;14.77;11.13;;;1.20;99.90;;;;;;5055371;28;20041;-68
2023/03/10 04:14:42;;;;;;;15.60;11.52;;;1.20;99.90;;;;;;5051910;28;20037;-70
2023/03/10 04:17:07;;;;;;;16.98;12.25;;;1.20;99.90;;;;;;5052497;28;20124;-69
2023/03/10 04:19:33;;;;;;;15.70;11.48;;;1.20;99.90;;;;;;5035979;28;20049;-68
2023/03/10 04:21:59;;;;;;;15.45;11.00;;;1.20;99.90;;;;;;5048913;28;20080;-70
2023/03/10 04:24:24;;;;;;;14.55;10.90;;;1.20;99.90;;;;;;5051008;28;20470;-69
2023/03/10 04:26:50;;;;;;;13.65;10.30;;;1.20;99.90;;;;;;5051637;28;20033;-68
2023/03/10 04:29:16;;;;;;;14.55;10.75;;;1.20;99.90;;;;;;5051930;28;20032;-68
2023/03/10 04:31:42;;;;;;;12.50;9.27;;;1.20;99.90;;;;;;5035096;28;20099;-70
2023/03/10 04:34:08;;;;;;;14.18;10.05;;;1.20;99.90;;;;;;5052059;28;20487;-68
2023/03/10 04:36:34;;;;;;;12.48;9.05;;;1.20;99.90;;;;;;5051537;28;20061;-69
2023/03/10 04:39:00;;;;;;;12.10;8.88;;;1.20;99.90;;;;;;5051332;28;20063;-67
2023/03/10 04:41:25;;;;;;;12.27;8.73;;;1.20;99.90;;;;;;5035212;28;20111;-69
2023/03/10 04:43:51;;;;;;;11.57;8.95;;;1.20;99.90;;;;;;5035434;28;20833;-70
2023/03/10 04:46:17;;;;;;;10.80;7.63;;;1.20;99.90;;;;;;5036111;28;20110;-69
2023/03/10 04:48:43;;;;;;;10.95;8.02;;;1.20;99.90;;;;;;5051686;28;20554;-67
2023/03/10 04:51:11;;;;;;;11.07;8.00;;;1.20;99.90;;;;;;5051698;28;20075;-69
2023/03/10 04:53:37;;;;;;;10.50;7.75;;;1.20;99.90;;;;;;5052422;28;20037;-68
2023/03/10 04:56:06;;;;;;;9.90;7.53;;;1.20;99.90;;;;;;5052438;28;20043;-70
2023/03/10 04:58:32;;;;;;;10.93;7.63;;;1.20;99.90;;;;;;5034343;28;20110;-67
2023/03/10 05:00:58;;;;;;;9.80;8.00;;;1.20;99.90;;;;;;5050984;28;20083;-70
2023/03/10 05:03:24;;;;;;;12.43;7.35;;;1.20;99.90;;;;;;5055391;28;20052;-70
2023/03/10 05:05:50;;;;;;;10.38;7.90;;;1.10;99.90;;;;;;5051249;28;20120;-68
2023/03/10 05:08:15;;;;;;;10.88;7.78;;;1.20;99.90;;;;;;5049084;28;20124;-68
2023/03/10 05:10:46;;;;;;;10.52;7.50;;;1.10;99.90;;;;;;5033543;28;20052;-71
2023/03/10 05:13:12;;;;;;;10.93;7.45;;;1.10;99.90;;;;;;5051582;28;20033;-71
2023/03/10 05:15:40;;;;;;;10.27;7.63;;;1.20;99.90;;;;;;5051213;28;20099;-70
2023/03/10 05:18:06;;;;;;;10.60;7.72;;;1.20;99.90;;;;;;5051806;28;20044;-69
2023/03/10 05:20:32;;;;;;;9.50;7.32;;;1.10;99.90;;;;;;5050251;28;20056;-71
2023/03/10 05:22:57;;;;;;;10.27;7.30;;;1.20;99.90;;;;;;5048508;28;20152;-69
2023/03/10 05:25:23;;;;;;;8.55;6.45;;;1.10;99.90;;;;;;5053846;28;20119;-69
2023/03/10 05:27:49;;;;;;;9.50;6.93;;;1.20;99.90;;;;;;5050642;28;20037;-71
2023/03/10 05:30:15;;;;;;;8.45;6.90;;;1.20;99.90;;;;;;5051512;28;20036;-69
2023/03/10 05:32:42;;;;;;;8.77;7.00;;;1.20;99.90;;;;;;5033185;28;20079;-71
2023/03/10 05:35:08;;;;;;;8.65;6.80;;;1.20;99.90;;;;;;5054320;28;20392;-71
2023/03/10 05:37:39;;;;;;;8.75;6.85;;;1.20;99.90;;;;;;5033810;28;20052;-69
2023/03/10 05:40:12;;;;;;;9.48;6.95;;;1.20;99.90;;;;;;5048842;28;20519;-69
2023/03/10 05:42:37;;;;;;;9.55;6.60;;;1.20;99.90;;;;;;5051181;28;20399;-70
2023/03/10 05:45:04;;;;;;;8.88;6.47;;;1.20;99.90;;;;;;5050583;28;20045;-68
2023/03/10 05:47:30;;;;;;;8.90;6.65;;;1.20;99.90;;;;;;5049894;28;20036;-70
2023/03/10 05:49:56;;;;;;;8.88;7.00;;;1.20;99.90;;;;;;5083863;28;20037;-69
2023/03/10 05:52:22;;;;;;;9.90;6.82;;;1.20;99.90;;;;;;5032961;28;20048;-69
2023/03/10 05:54:47;;;;;;;8.68;6.70;;;1.20;99.90;;;;;;5053805;28;20049;-69
2023/03/10 05:57:13;;;;;;;9.85;6.88;;;1.20;99.90;;;;;;5049564;28;20049;-71
2023/03/10 05:59:39;;;;;;;9.10;6.82;;;1.20;99.90;;;;;;5081652;28;20119;-70
2023/03/10 06:02:05;;;;;;;9.77;6.75;;;1.30;99.90;;;;;;5047860;28;20080;-69
2023/03/10 06:04:32;;;;;;;12.48;6.70;;;1.20;99.90;;;;;;5063696;28;20049;-70
2023/03/10 06:07:01;;;;;;;9.55;7.03;;;1.20;99.90;;;;;;5049588;28;20040;-69
2023/03/10 06:09:29;;;;;;;9.52;7.07;;;1.20;99.90;;;;;;5032894;28;20044;-71
2023/03/10 06:11:55;;;;;;;8.38;6.47;;;1.20;99.90;;;;;;5032756;28;20029;-66
2023/03/10 06:14:21;;;;;;;12.80;8.55;;;1.20;99.90;;;;;;5047047;28;20068;-70
2023/03/10 06:16:50;;;;;;;9.82;7.18;;;1.30;99.90;;;;;;5049204;28;20091;-68
2023/03/10 06:19:20;;;;;;;9.82;7.25;;;1.20;99.90;;;;;;5049737;28;20050;-69
2023/03/10 06:21:45;;;;;;;10.02;7.57;;;1.30;99.90;;;;;;5049588;28;20041;-69
2023/03/10 06:24:11;;;;;;;10.23;7.78;;;1.20;99.90;;;;;;5049274;28;20051;-69
2023/03/10 06:26:37;;;;;;;9.80;7.43;;;1.30;99.90;;;;;;5049548;28;20056;-67
2023/03/10 06:29:04;;;;;;;10.77;7.55;;;1.30;99.90;;;;;;5048544;28;20124;-68
2023/03/10 06:31:30;;;;;;;9.95;7.60;;;1.30;99.90;;;;;;5050971;28;20033;-69
2023/03/10 06:33:57;;;;;;;9.68;7.68;;;1.30;99.90;;;;;;5048848;28;20059;-68
2023/03/10 06:36:25;;;;;;;9.88;7.72;;;1.30;99.90;;;;;;5050017;28;20048;-69
2023/03/10 06:38:52;;;;;;;10.50;8.23;;;1.30;99.90;;;;;;5049168;28;20123;-70
2023/03/10 06:41:19;;;;;;;10.13;7.32;;;1.30;99.90;;;;;;5049266;28;20029;-70
2023/03/10 06:43:45;;;;;;;9.88;7.47;;;1.30;99.90;;;;;;5049224;28;20048;-69
2023/03/10 06:46:11;;;;;;;10.18;7.63;;;1.30;99.90;;;;;;5048203;28;20037;-69
2023/03/10 06:48:38;;;;;;;11.40;8.43;;;1.30;99.90;;;;;;5049148;28;20395;-70
2023/03/10 06:51:06;;;;;;;11.90;8.93;;;1.30;99.90;;;;;;5048197;28;20503;-69
2023/03/10 06:53:32;;;;;;;12.82;8.98;;;1.30;99.90;;;;;;5048610;28;20032;-68
2023/03/10 06:56:07;;;;;;;11.93;8.65;;;1.40;99.90;;;;;;5030835;28;20135;-69
2023/03/10 06:58:35;;;;;;;12.38;9.57;;;1.40;99.90;;;;;;5046285;28;20036;-69
2023/03/10 07:01:02;;;;;;;12.98;8.98;;;1.40;99.90;;;;;;5031719;28;20546;-68
2023/03/10 07:03:28;;;;;;;13.38;9.73;;;1.40;99.90;;;;;;5046111;28;20053;-70
2023/03/10 07:05:55;;;;;;;13.80;10.23;;;1.50;99.90;;;;;;5047978;28;20375;-68
2023/03/10 07:08:20;;;;;;;13.25;10.02;;;1.50;99.90;;;;;;5048679;28;20565;-68
2023/03/10 07:10:46;;;;;;;12.18;9.43;;;1.40;99.90;;;;;;5047040;28;20067;-69
2023/03/10 07:13:16;;;;;;;13.55;10.02;;;1.40;99.90;;;;;;5048316;28;20036;-69
2023/03/10 07:15:43;;;;;;;17.65;11.55;;;1.40;99.90;;;;;;5048467;28;20053;-67
2023/03/10 07:18:09;;;;;;;14.75;11.35;;;1.50;99.90;;;;;;5046920;28;20059;-68
2023/03/10 07:20:37;;;;;;;15.82;11.82;;;1.50;99.90;;;;;;5048024;28;20119;-68
2023/03/10 07:23:03;;;;;;;17.80;12.90;;;1.50;99.90;;;;;;5048440;28;20124;-69
2023/03/10 07:25:28;;;;;;;18.33;12.70;;;1.50;99.90;;;;;;5048940;28;20564;-68
2023/03/10 07:27:54;;;;;;;18.48;13.07;;;1.50;99.90;;;;;;5052769;28;20277;-68
2023/03/10 07:30:20;;;;;;;19.05;13.48;;;1.50;99.90;;;;;;5052064;28;20037;-69
2023/03/10 07:32:46;;;;;;;19.92;13.80;;;1.50;99.90;;;;;;5051623;28;20483;-68
2023/03/10 07:35:11;;;;;;;20.85;14.50;;;1.50;99.90;;;;;;5035597;28;20528;-68
2023/03/10 07:37:39;;;;;;;20.85;14.95;;;1.50;99.90;;;;;;5052231;28;20408;-67
2023/03/10 07:40:08;;;;;;;22.17;15.45;;;1.50;99.90;;;;;;5052509;28;20048;-68
2023/03/10 07:42:33;;;;;;;22.27;15.27;;;1.50;99.90;;;;;;5051980;28;20119;-71
2023/03/10 07:44:59;;;;;;;21.00;15.05;;;1.60;99.90;;;;;;5052294;28;20116;-70
2023/03/10 07:47:25;;;;;;;23.02;15.68;;;1.60;99.90;;;;;;5051722;28;20043;-70
2023/03/10 07:49:50;;;;;;;21.35;15.45;;;1.60;99.90;;;;;;5033494;28;20123;-70
2023/03/10 07:52:17;;;;;;;21.15;14.82;;;1.60;99.90;;;;;;5067785;28;20051;-68
2023/03/10 07:54:43;;;;;;;20.92;14.85;;;1.60;99.90;;;;;;5048944;28;20049;-70
2023/03/10 07:57:10;;;;;;;23.48;15.73;;;1.60;99.90;;;;;;5049454;28;20488;-68
2023/03/10 07:59:36;;;;;;;22.23;15.60;;;1.60;99.90;;;;;;5034374;28;20568;-70
2023/03/10 08:02:01;;;;;;;22.88;15.77;;;1.60;99.90;;;;;;5035328;28;20163;-69
2023/03/10 08:04:27;;;;;;;21.50;14.70;;;1.60;99.90;;;;;;5051804;28;20053;-69
2023/03/10 08:06:53;;;;;;;22.52;15.60;;;1.60;99.90;;;;;;5051416;28;20140;-68
2023/03/10 08:09:18;;;;;;;23.52;15.35;;;1.60;99.90;;;;;;5051569;28;20037;-67
2023/03/10 08:11:44;;;;;;;20.80;14.43;;;1.70;99.90;;;;;;5051336;28;20048;-67
2023/03/10 08:14:10;;;;;;;22.55;15.75;;;1.70;99.90;;;;;;5032287;28;20048;-66
2023/03/10 08:16:36;;;;;;;22.17;14.98;;;1.70;99.90;;;;;;5034281;28;20040;-67
2023/03/10 08:19:02;;;;;;;21.27;15.13;;;1.70;99.90;;;;;;5051632;28;20041;-68
2023/03/10 08:21:28;;;;;;;20.92;14.05;;;1.70;99.90;;;;;;5033926;28;20152;-66
2023/03/10 08:23:54;;;;;;;20.17;14.20;;;1.70;99.90;;;;;;5050276;28;20404;-67
2023/03/10 08:26:20;;;;;;;21.25;14.30;;;1.70;99.90;;;;;;5052206;28;20044;-67
2023/03/10 08:28:47;;;;;;;21.60;14.43;;;1.70;99.90;;;;;;5050688;28;20040;-66
2023/03/10 08:31:15;;;;;;;19.42;13.75;;;1.70;99.90;;;;;;5051229;28;20087;-67
2023/03/10 08:33:42;;;;;;;20.90;13.55;;;1.80;99.90;;;;;;5049996;28;20053;-69
2023/03/10 08:36:13;;;;;;;18.77;13.65;;;1.80;99.90;;;;;;5034694;28;20503;-69
2023/03/10 08:38:39;;;;;;;21.05;13.68;;;1.80;99.90;;;;;;5034154;28;20044;-68
2023/03/10 08:41:27;;;;;;;19.27;13.45;;;1.80;99.90;;;;;;5051444;28;20504;-69
2023/03/10 08:43:54;;;;;;;19.30;13.38;;;1.80;99.90;;;;;;5050846;28;20395;-69
2023/03/10 08:46:21;;;;;;;18.98;12.98;;;1.80;99.90;;;;;;5051307;28;20587;-70
2023/03/10 08:48:47;;;;;;;18.20;12.98;;;1.90;99.90;;;;;;5049412;28;20048;-70
2023/03/10 08:51:14;;;;;;;19.30;13.30;;;1.90;99.90;;;;;;5080086;28;20041;-69
2023/03/10 08:53:39;;;;;;;17.92;13.15;;;1.90;99.90;;;;;;5051309;28;20045;-69
2023/03/10 08:56:06;;;;;;;17.00;12.52;;;2.00;99.90;;;;;;5051499;28;20404;-69
2023/03/10 08:58:32;;;;;;;17.88;12.77;;;2.00;99.90;;;;;;5074504;28;20049;-69
2023/03/10 09:00:58;;;;;;;16.83;11.93;;;2.00;99.90;;;;;;5051502;28;20083;-68
2023/03/10 09:03:25;;;;;;;18.10;12.45;;;2.00;99.90;;;;;;5050894;28;20028;-69
2023/03/10 09:05:50;;;;;;;16.33;12.25;;;2.00;99.90;;;;;;5051911;28;20053;-69
2023/03/10 09:08:16;;;;;;;16.60;11.98;;;2.00;99.90;;;;;;5049525;28;20095;-69
2023/03/10 09:10:43;;;;;;;16.67;12.05;;;2.00;99.90;;;;;;5050813;28;20441;-69
2023/03/10 09:13:10;;;;;;;16.88;12.10;;;2.00;99.90;;;;;;5048263;28;20124;-68
2023/03/10 09:15:40;;;;;;;17.17;12.13;;;1.90;99.90;;;;;;5034027;28;20529;-69
2023/03/10 09:18:11;;;;;;;17.17;12.45;;;1.90;99.90;;;;;;5049278;28;20032;-69
2023/03/10 09:20:39;;;;;;;18.48;12.93;;;1.90;99.90;;;;;;5049856;28;20033;-69
2023/03/10 09:23:05;;;;;;;16.35;12.68;;;1.80;99.90;;;;;;5028494;28;20119;-69
2023/03/10 09:25:31;;;;;;;15.98;12.10;;;1.90;99.90;;;;;;5030658;28;20124;-68
2023/03/10 09:27:57;;;;;;;16.70;12.73;;;1.90;99.90;;;;;;5050089;28;20136;-68
2023/03/10 09:30:23;;;;;;;16.15;11.60;;;1.90;99.90;;;;;;5050654;28;20561;-68
2023/03/10 09:32:49;;;;;;;15.25;11.63;;;1.90;99.90;;;;;;5049045;28;20049;-69
2023/03/10 09:35:15;;;;;;;16.05;11.70;;;1.90;99.90;;;;;;5048630;28;20095;-68
2023/03/10 09:37:40;;;;;;;17.58;12.65;;;2.00;99.90;;;;;;5050310;28;20044;-69
2023/03/10 09:40:09;;;;;;;17.98;12.45;;;2.00;99.90;;;;;;5045292;28;20067;-70
2023/03/10 09:42:43;;;;;;;16.67;12.07;;;2.00;99.90;;;;;;5047720;28;20384;-67
2023/03/10 09:45:31;;;;;;;17.25;12.43;;;2.00;99.90;;;;;;5048259;28;20545;-69
2023/03/10 09:48:11;;;;;;;16.17;12.27;;;2.00;99.90;;;;;;5049169;28;20159;-67
2023/03/10 09:50:44;;;;;;;17.80;12.40;;;2.00;99.90;;;;;;5050150;28;20037;-68
2023/03/10 09:53:34;;;;;;;17.45;13.38;;;2.00;99.90;;;;;;5048036;28;20040;-68
2023/03/10 09:56:08;;;;;;;17.83;13.15;;;2.00;99.90;;;;;;5065395;28;20407;-69
2023/03/10 09:58:44;;;;;;;17.65;13.32;;;2.00;99.90;;;;;;5049450;28;20096;-69
2023/03/10 10:01:20;;;;;;;17.30;12.38;;;2.00;99.90;;;;;;5048243;28;20119;-68
2023/03/10 10:03:48;;;;;;;18.02;12.93;;;2.00;99.90;;;;;;5049620;28;20052;-69
2023/03/10 10:06:29;;;;;;;16.75;12.25;;;1.90;99.90;;;;;;5049235;28;20615;-68
2023/03/10 10:09:12;;;;;;;17.63;12.95;;;2.00;99.90;;;;;;5049880;28;20056;-69
2023/03/10 10:11:39;;;;;;;18.15;12.55;;;1.90;99.90;;;;;;5032643;28;20033;-68
2023/03/10 10:14:20;;;;;;;18.83;13.07;;;1.90;99.90;;;;;;5047571;28;20045;-68
2023/03/10 10:16:54;;;;;;;18.02;13.00;;;1.90;99.90;;;;;;5055058;28;20060;-69
2023/03/10 10:19:25;;;;;;;18.40;13.35;;;1.90;99.90;;;;;;5049181;28;20419;-69
2023/03/10 10:22:00;;;;;;;17.00;12.43;;;1.90;99.90;;;;;;5032881;28;20052;-68
2023/03/10 10:24:25;;;;;;;19.45;13.20;;;1.90;99.90;;;;;;5032517;28;20041;-68
2023/03/10 10:26:51;;;;;;;18.23;12.63;;;1.90;99.90;;;;;;5050061;28;20118;-69
2023/03/10 10:29:35;;;;;;;17.48;12.25;;;1.90;99.90;;;;;;5048751;28;20037;-68
2023/03/10 10:32:13;;;;;;;19.45;13.13;;;1.80;99.90;;;;;;5046318;28;20388;-67
2023/03/10 10:34:41;;;;;;;16.98;12.25;;;1.90;99.90;;;;;;5063535;28;20427;-68
2023/03/10 10:37:30;;;;;;;19.20;12.38;;;1.80;99.90;;;;;;5049245;28;20037;-67
2023/03/10 10:39:58;;;;;;;19.08;13.43;;;1.90;99.90;;;;;;5048884;28;20122;-68
2023/03/10 10:42:33;;;;;;;16.95;12.50;;;1.80;99.90;;;;;;5048574;28;20095;-67
2023/03/10 10:45:05;;;;;;;17.95;12.93;;;1.80;99.90;;;;;;5032028;28;20037;-68
2023/03/10 10:47:34;;;;;;;17.02;12.80;;;1.80;99.90;;;;;;5048064;28;20119;-68
2023/03/10 10:50:22;;;;;;;18.30;13.18;;;1.80;99.90;;;;;;5049183;28;20040;-68
2023/03/10 10:53:14;;;;;;;18.10;13.05;;;1.80;99.90;;;;;;5047903;28;20400;-68
2023/03/10 10:55:41;;;;;;;17.77;13.18;;;1.90;99.90;;;;;;5047927;28;20048;-68
2023/03/10 10:58:27;;;;;;;17.95;13.52;;;1.90;99.90;;;;;;5049123;28;20061;-69
2023/03/10 11:00:55;;;;;;;17.67;12.93;;;1.90;99.90;;;;;;5047025;28;20049;-69
2023/03/10 11:03:30;;;;;;;17.73;12.38;;;1.90;99.90;;;;;;5048817;28;20079;-68
2023/03/10 11:05:56;;;;;;;17.60;13.18;;;1.90;99.90;;;;;;5047875;28;20049;-68
2023/03/10 11:08:39;;;;;;;19.38;12.75;;;1.90;99.90;;;;;;5048981;28;20055;-69
2023/03/10 11:11:17;;;;;;;25.70;18.75;;;1.90;99.90;;;;;;5046710;28;20469;-68
2023/03/10 11:13:58;;;;;;;20.40;14.80;;;1.90;99.90;;;;;;5049069;28;20049;-68
2023/03/10 11:16:35;;;;;;;16.98;11.95;;;1.90;99.90;;;;;;5049008;28;20041;-69
2023/03/10 11:19:07;;;;;;;28.67;22.27;;;2.00;99.90;;;;;;5049238;28;20040;-68
2023/03/10 11:21:38;;;;;;;29.58;22.38;;;2.00;99.90;;;;;;5048428;28;20436;-69
2023/03/10 11:24:15;;;;;;;17.35;12.32;;;1.90;99.90;;;;;;5048895;28;20029;-70
2023/03/10 11:26:58;;;;;;;16.35;12.07;;;1.90;99.90;;;;;;5048896;28;20373;-68
2023/03/10 11:29:52;;;;;;;16.33;11.60;;;1.90;99.90;;;;;;5048536;28;20029;-68
2023/03/10 11:32:48;;;;;;;15.50;11.27;;;1.90;99.90;;;;;;5050087;28;20084;-68
2023/03/10 11:35:29;;;;;;;16.00;11.57;;;1.90;99.90;;;;;;5051852;28;20044;-68
2023/03/10 11:38:16;;;;;;;16.50;12.02;;;1.90;99.90;;;;;;5048244;28;20037;-68
2023/03/10 11:40:50;;;;;;;16.13;11.88;;;1.90;99.90;;;;;;5032397;28;20158;-70
2023/03/10 11:43:38;;;;;;;17.83;12.25;;;1.90;99.90;;;;;;5033377;28;20048;-70
2023/03/10 11:46:23;;;;;;;14.70;11.23;;;2.00;99.90;;;;;;5047154;28;20085;-68
2023/03/10 11:49:13;;;;;;;16.55;11.73;;;2.00;99.90;;;;;;5046461;28;20392;-69
2023/03/10 11:51:57;;;;;;;16.17;11.38;;;2.00;99.90;;;;;;5046298;28;20436;-68
2023/03/10 11:54:30;;;;;;;14.77;10.90;;;2.00;99.90;;;;;;5055031;28;20056;-69
2023/03/10 11:56:58;;;;;;;15.13;11.45;;;2.00;99.90;;;;;;5047708;28;20052;-69
2023/03/10 11:59:33;;;;;;;16.52;12.27;;;2.00;99.90;;;;;;5065623;28;20392;-69
2023/03/10 12:02:10;;;;;;;16.38;11.80;;;2.10;99.90;;;;;;5046911;28;20037;-68
2023/03/10 12:05:05;;;;;;;15.38;11.10;;;2.10;99.90;;;;;;5048588;28;20053;-68
2023/03/10 12:07:45;;;;;;;16.02;11.50;;;2.10;99.90;;;;;;5044381;28;20045;-68
2023/03/10 12:10:11;;;;;;;16.45;11.05;;;2.20;99.90;;;;;;5063230;28;20032;-69
2023/03/10 12:12:40;;;;;;;14.82;10.77;;;2.10;99.90;;;;;;5050143;28;20043;-68
2023/03/10 12:15:21;;;;;;;15.82;12.00;;;2.10;99.90;;;;;;5051230;28;20117;-70
2023/03/10 12:17:56;;;;;;;14.45;10.90;;;2.10;99.90;;;;;;5052032;28;20055;-68
2023/03/10 12:20:23;;;;;;;15.30;11.50;;;2.10;99.90;;;;;;5050525;28;20091;-69
2023/03/10 12:22:51;;;;;;;14.70;11.07;;;2.10;99.90;;;;;;5055077;28;20047;-69
2023/03/10 12:25:29;;;;;;;15.45;11.07;;;2.10;99.90;;;;;;5051439;28;20042;-70
2023/03/10 12:28:16;;;;;;;16.55;11.63;;;2.20;99.90;;;;;;5051108;28;20260;-68
2023/03/10 12:31:09;;;;;;;15.68;11.55;;;2.20;99.90;;;;;;5048443;28;20064;-70
2023/03/10 12:33:38;;;;;;;15.90;11.18;;;2.20;99.90;;;;;;5049472;28;20088;-69
2023/03/10 12:36:19;;;;;;;16.02;11.52;;;2.20;99.90;;;;;;5051517;28;20036;-68
2023/03/10 12:38:46;;;;;;;15.77;11.18;;;2.20;99.90;;;;;;5034887;28;20049;-68
2023/03/10 12:41:33;;;;;;;15.27;11.00;;;2.20;99.90;;;;;;5047281;28;20037;-69
2023/03/10 12:44:21;;;;;;;15.00;10.77;;;2.20;99.90;;;;;;5048244;28;20053;-68
2023/03/10 12:47:06;;;;;;;15.82;11.63;;;2.20;99.90;;;;;;5032926;28;20040;-68
2023/03/10 12:49:37;;;;;;;15.05;11.18;;;2.20;99.90;;;;;;5034319;28;20121;-68
2023/03/10 12:52:09;;;;;;;16.15;11.23;;;2.10;99.90;;;;;;5049519;28;20041;-69
2023/03/10 12:54:59;;;;;;;15.10;10.90;;;2.10;99.90;;;;;;5050000;28;20405;-68